sensor_id;sensor_type;location;lat;lon;timestamp;temperature;humidity
65598;SHT31;52267;51.984;20.956;2023-05-09T00:00:05;2.82;73.23
65598;SHT31;52267;51.984;20.956;2023-05-09T00:02:56;2.76;73.46
65598;SHT31;52267;51.984;20.956;2023-05-09T00:05:23;2.73;73.50
65598;SHT31;52267;51.984;20.956;2023-05-09T00:07:50;2.73;73.26
65598;SHT31;52267;51.984;20.956;2023-05-09T00:10:17;2.73;73.21
65598;SHT31;52267;51.984;20.956;2023-05-09T00:12:44;2.68;73.34
65598;SHT31;52267;51.984;20.956;2023-05-09T00:15:12;2.64;73.44
65598;SHT31;52267;51.984;20.956;2023-05-09T00:17:39;2.61;73.45
65598;SHT31;52267;51.984;20.956;2023-05-09T00:20:07;2.58;73.48
65598;SHT31;52267;51.984;20.956;2023-05-09T00:22:38;2.54;73.60
65598;SHT31;52267;51.984;20.956;2023-05-09T00:25:09;2.52;73.78
65598;SHT31;52267;51.984;20.956;2023-05-09T00:27:37;2.43;73.99
65598;SHT31;52267;51.984;20.956;2023-05-09T00:30:05;2.39;73.86
65598;SHT31;52267;51.984;20.956;2023-05-09T00:32:32;2.38;73.75
65598;SHT31;52267;51.984;20.956;2023-05-09T00:34:59;2.34;73.83
65598;SHT31;52267;51.984;20.956;2023-05-09T00:37:27;2.29;73.79
65598;SHT31;52267;51.984;20.956;2023-05-09T00:39:56;2.26;73.87
65598;SHT31;52267;51.984;20.956;2023-05-09T00:42:23;2.27;73.88
65598;SHT31;52267;51.984;20.956;2023-05-09T00:44:50;2.28;73.82
65598;SHT31;52267;51.984;20.956;2023-05-09T00:47:17;2.28;73.63
65598;SHT31;52267;51.984;20.956;2023-05-09T00:49:45;2.29;73.49
65598;SHT31;52267;51.984;20.956;2023-05-09T00:52:12;2.26;73.68
65598;SHT31;52267;51.984;20.956;2023-05-09T00:54:39;2.23;73.78
65598;SHT31;52267;51.984;20.956;2023-05-09T00:57:06;2.20;73.81
65598;SHT31;52267;51.984;20.956;2023-05-09T00:59:34;2.19;73.84
65598;SHT31;52267;51.984;20.956;2023-05-09T01:02:01;2.19;73.88
65598;SHT31;52267;51.984;20.956;2023-05-09T01:04:28;2.16;73.94
65598;SHT31;52267;51.984;20.956;2023-05-09T01:12:48;2.11;73.97
65598;SHT31;52267;51.984;20.956;2023-05-09T01:15:57;2.08;74.06
65598;SHT31;52267;51.984;20.956;2023-05-09T01:18:43;2.04;74.15
65598;SHT31;52267;51.984;20.956;2023-05-09T01:21:22;2.01;74.20
65598;SHT31;52267;51.984;20.956;2023-05-09T01:23:59;2.00;74.15
65598;SHT31;52267;51.984;20.956;2023-05-09T01:30:16;1.95;74.40
65598;SHT31;52267;51.984;20.956;2023-05-09T01:32:45;1.90;74.38
65598;SHT31;52267;51.984;20.956;2023-05-09T01:35:17;1.88;74.44
65598;SHT31;52267;51.984;20.956;2023-05-09T01:37:48;1.86;74.51
65598;SHT31;52267;51.984;20.956;2023-05-09T01:40:17;1.77;75.28
65598;SHT31;52267;51.984;20.956;2023-05-09T01:42:56;1.58;76.86
65598;SHT31;52267;51.984;20.956;2023-05-09T01:45:27;1.61;75.94
65598;SHT31;52267;51.984;20.956;2023-05-09T01:47:56;1.61;75.53
65598;SHT31;52267;51.984;20.956;2023-05-09T01:50:24;1.61;75.32
65598;SHT31;52267;51.984;20.956;2023-05-09T01:52:54;1.62;75.16
65598;SHT31;52267;51.984;20.956;2023-05-09T01:55:23;1.62;75.02
65598;SHT31;52267;51.984;20.956;2023-05-09T01:57:53;1.62;75.02
65598;SHT31;52267;51.984;20.956;2023-05-09T02:00:22;1.61;75.00
65598;SHT31;52267;51.984;20.956;2023-05-09T02:02:51;1.59;74.98
65598;SHT31;52267;51.984;20.956;2023-05-09T02:05:18;1.62;74.88
65598;SHT31;52267;51.984;20.956;2023-05-09T02:07:47;1.62;74.89
65598;SHT31;52267;51.984;20.956;2023-05-09T02:10:15;1.60;74.92
65598;SHT31;52267;51.984;20.956;2023-05-09T02:12:42;1.58;74.90
65598;SHT31;52267;51.984;20.956;2023-05-09T02:15:09;1.59;74.86
65598;SHT31;52267;51.984;20.956;2023-05-09T02:17:36;1.62;74.73
65598;SHT31;52267;51.984;20.956;2023-05-09T02:20:04;1.59;74.72
65598;SHT31;52267;51.984;20.956;2023-05-09T02:22:35;1.58;74.04
65598;SHT31;52267;51.984;20.956;2023-05-09T02:25:02;1.58;73.76
65598;SHT31;52267;51.984;20.956;2023-05-09T02:27:33;1.55;74.27
65598;SHT31;52267;51.984;20.956;2023-05-09T02:30:02;1.58;74.11
65598;SHT31;52267;51.984;20.956;2023-05-09T02:32:33;1.55;74.11
65598;SHT31;52267;51.984;20.956;2023-05-09T02:35:01;1.55;74.30
65598;SHT31;52267;51.984;20.956;2023-05-09T02:37:29;1.57;74.41
65598;SHT31;52267;51.984;20.956;2023-05-09T02:39:56;1.55;74.02
65598;SHT31;52267;51.984;20.956;2023-05-09T02:42:24;1.52;74.11
65598;SHT31;52267;51.984;20.956;2023-05-09T02:44:52;1.54;74.38
65598;SHT31;52267;51.984;20.956;2023-05-09T02:47:20;1.51;74.55
65598;SHT31;52267;51.984;20.956;2023-05-09T02:49:47;1.48;74.68
65598;SHT31;52267;51.984;20.956;2023-05-09T02:52:14;1.47;74.47
65598;SHT31;52267;51.984;20.956;2023-05-09T02:54:42;1.34;76.42
65598;SHT31;52267;51.984;20.956;2023-05-09T02:57:09;1.31;75.97
65598;SHT31;52267;51.984;20.956;2023-05-09T02:59:36;1.28;75.85
65598;SHT31;52267;51.984;20.956;2023-05-09T03:02:03;1.29;75.58
65598;SHT31;52267;51.984;20.956;2023-05-09T03:04:30;1.27;75.84
65598;SHT31;52267;51.984;20.956;2023-05-09T03:06:57;1.26;75.89
65598;SHT31;52267;51.984;20.956;2023-05-09T03:09:24;1.25;75.76
65598;SHT31;52267;51.984;20.956;2023-05-09T03:11:51;1.25;75.82
65598;SHT31;52267;51.984;20.956;2023-05-09T03:14:18;1.18;76.19
65598;SHT31;52267;51.984;20.956;2023-05-09T03:16:45;1.18;76.03
65598;SHT31;52267;51.984;20.956;2023-05-09T03:19:12;1.18;76.09
65598;SHT31;52267;51.984;20.956;2023-05-09T03:21:39;1.19;76.19
65598;SHT31;52267;51.984;20.956;2023-05-09T03:24:07;1.16;76.35
65598;SHT31;52267;51.984;20.956;2023-05-09T03:26:36;1.10;76.65
65598;SHT31;52267;51.984;20.956;2023-05-09T03:29:03;1.14;76.37
65598;SHT31;52267;51.984;20.956;2023-05-09T03:31:30;1.11;76.55
65598;SHT31;52267;51.984;20.956;2023-05-09T03:33:57;1.12;76.64
65598;SHT31;52267;51.984;20.956;2023-05-09T03:36:24;1.19;76.40
65598;SHT31;52267;51.984;20.956;2023-05-09T03:38:51;1.26;76.27
65598;SHT31;52267;51.984;20.956;2023-05-09T03:41:19;1.33;76.05
65598;SHT31;52267;51.984;20.956;2023-05-09T03:43:46;1.40;75.79
65598;SHT31;52267;51.984;20.956;2023-05-09T03:46:13;1.43;75.91
65598;SHT31;52267;51.984;20.956;2023-05-09T03:48:40;1.45;76.02
65598;SHT31;52267;51.984;20.956;2023-05-09T03:51:07;1.52;75.99
65598;SHT31;52267;51.984;20.956;2023-05-09T03:53:34;1.57;76.08
65598;SHT31;52267;51.984;20.956;2023-05-09T03:56:01;1.61;76.12
65598;SHT31;52267;51.984;20.956;2023-05-09T03:58:28;1.67;76.14
65598;SHT31;52267;51.984;20.956;2023-05-09T04:00:55;1.72;75.98
65598;SHT31;52267;51.984;20.956;2023-05-09T04:03:22;1.79;75.87
65598;SHT31;52267;51.984;20.956;2023-05-09T04:05:50;1.86;76.04
65598;SHT31;52267;51.984;20.956;2023-05-09T04:08:17;1.90;76.25
65598;SHT31;52267;51.984;20.956;2023-05-09T04:10:44;1.98;76.27
65598;SHT31;52267;51.984;20.956;2023-05-09T04:13:11;2.05;76.26
65598;SHT31;52267;51.984;20.956;2023-05-09T04:15:38;2.12;76.31
65598;SHT31;52267;51.984;20.956;2023-05-09T04:18:05;2.17;76.49
65598;SHT31;52267;51.984;20.956;2023-05-09T04:20:32;2.25;76.40
65598;SHT31;52267;51.984;20.956;2023-05-09T04:22:59;2.32;76.41
65598;SHT31;52267;51.984;20.956;2023-05-09T04:25:26;2.41;76.45
65598;SHT31;52267;51.984;20.956;2023-05-09T04:27:54;2.49;76.44
65598;SHT31;52267;51.984;20.956;2023-05-09T04:30:22;2.58;76.30
65598;SHT31;52267;51.984;20.956;2023-05-09T04:32:52;2.68;76.27
65598;SHT31;52267;51.984;20.956;2023-05-09T04:35:20;2.79;76.45
65598;SHT31;52267;51.984;20.956;2023-05-09T04:37:47;2.89;76.38
65598;SHT31;52267;51.984;20.956;2023-05-09T04:40:15;3.00;76.42
65598;SHT31;52267;51.984;20.956;2023-05-09T04:42:42;3.11;76.42
65598;SHT31;52267;51.984;20.956;2023-05-09T04:45:09;3.24;76.59
65598;SHT31;52267;51.984;20.956;2023-05-09T04:47:37;3.36;76.39
65598;SHT31;52267;51.984;20.956;2023-05-09T04:50:04;3.50;76.26
65598;SHT31;52267;51.984;20.956;2023-05-09T04:52:31;3.65;76.46
65598;SHT31;52267;51.984;20.956;2023-05-09T04:54:58;3.79;76.41
65598;SHT31;52267;51.984;20.956;2023-05-09T04:57:26;3.95;76.59
65598;SHT31;52267;51.984;20.956;2023-05-09T04:59:53;4.14;76.70
65598;SHT31;52267;51.984;20.956;2023-05-09T05:02:20;4.34;76.43
65598;SHT31;52267;51.984;20.956;2023-05-09T05:04:47;4.52;76.21
65598;SHT31;52267;51.984;20.956;2023-05-09T05:07:14;4.73;75.93
65598;SHT31;52267;51.984;20.956;2023-05-09T05:09:41;4.94;75.44
65598;SHT31;52267;51.984;20.956;2023-05-09T05:12:08;5.16;75.28
65598;SHT31;52267;51.984;20.956;2023-05-09T05:14:36;5.36;75.11
65598;SHT31;52267;51.984;20.956;2023-05-09T05:17:03;5.56;74.62
65598;SHT31;52267;51.984;20.956;2023-05-09T05:19:30;5.78;74.36
65598;SHT31;52267;51.984;20.956;2023-05-09T05:21:57;5.99;74.15
65598;SHT31;52267;51.984;20.956;2023-05-09T05:24:24;6.20;73.67
65598;SHT31;52267;51.984;20.956;2023-05-09T05:26:51;6.42;73.27
65598;SHT31;52267;51.984;20.956;2023-05-09T05:29:18;6.58;72.99
65598;SHT31;52267;51.984;20.956;2023-05-09T05:31:45;6.78;72.61
65598;SHT31;52267;51.984;20.956;2023-05-09T05:34:12;6.98;72.28
65598;SHT31;52267;51.984;20.956;2023-05-09T05:36:41;7.18;72.12
65598;SHT31;52267;51.984;20.956;2023-05-09T05:39:08;7.35;71.78
65598;SHT31;52267;51.984;20.956;2023-05-09T05:41:35;7.54;71.39
65598;SHT31;52267;51.984;20.956;2023-05-09T05:44:03;7.72;70.87
65598;SHT31;52267;51.984;20.956;2023-05-09T05:46:30;7.90;70.60
65598;SHT31;52267;51.984;20.956;2023-05-09T05:48:57;8.12;70.03
65598;SHT31;52267;51.984;20.956;2023-05-09T05:51:24;8.36;69.70
65598;SHT31;52267;51.984;20.956;2023-05-09T05:53:51;8.74;68.39
65598;SHT31;52267;51.984;20.956;2023-05-09T05:56:18;9.03;67.58
65598;SHT31;52267;51.984;20.956;2023-05-09T05:58:45;9.25;67.22
65598;SHT31;52267;51.984;20.956;2023-05-09T06:01:12;9.47;66.57
65598;SHT31;52267;51.984;20.956;2023-05-09T06:03:39;9.64;66.71
65598;SHT31;52267;51.984;20.956;2023-05-09T06:06:06;9.88;65.50
65598;SHT31;52267;51.984;20.956;2023-05-09T06:08:33;10.12;65.28
65598;SHT31;52267;51.984;20.956;2023-05-09T06:11:00;10.35;64.12
65598;SHT31;52267;51.984;20.956;2023-05-09T06:13:27;10.58;63.75
65598;SHT31;52267;51.984;20.956;2023-05-09T06:15:54;10.81;63.48
65598;SHT31;52267;51.984;20.956;2023-05-09T06:18:22;11.01;58.52
65598;SHT31;52267;51.984;20.956;2023-05-09T06:20:49;11.20;60.09
65598;SHT31;52267;51.984;20.956;2023-05-09T06:23:16;11.36;59.58
65598;SHT31;52267;51.984;20.956;2023-05-09T06:25:47;11.53;59.38
65598;SHT31;52267;51.984;20.956;2023-05-09T06:28:14;11.72;59.67
65598;SHT31;52267;51.984;20.956;2023-05-09T06:30:41;11.91;59.06
65598;SHT31;52267;51.984;20.956;2023-05-09T06:33:08;12.08;58.22
65598;SHT31;52267;51.984;20.956;2023-05-09T06:35:35;12.28;58.46
65598;SHT31;52267;51.984;20.956;2023-05-09T06:38:03;12.48;57.80
65598;SHT31;52267;51.984;20.956;2023-05-09T06:40:29;12.65;56.74
65598;SHT31;52267;51.984;20.956;2023-05-09T06:42:57;12.85;55.80
65598;SHT31;52267;51.984;20.956;2023-05-09T06:45:24;13.06;56.81
65598;SHT31;52267;51.984;20.956;2023-05-09T06:47:52;13.28;56.39
65598;SHT31;52267;51.984;20.956;2023-05-09T06:50:19;13.48;55.40
65598;SHT31;52267;51.984;20.956;2023-05-09T06:52:46;13.64;51.83
65598;SHT31;52267;51.984;20.956;2023-05-09T06:55:13;13.78;52.66
65598;SHT31;52267;51.984;20.956;2023-05-09T06:57:40;13.93;51.04
65598;SHT31;52267;51.984;20.956;2023-05-09T07:00:08;14.13;51.91
65598;SHT31;52267;51.984;20.956;2023-05-09T07:02:36;14.26;47.80
65598;SHT31;52267;51.984;20.956;2023-05-09T07:05:07;14.39;47.66
65598;SHT31;52267;51.984;20.956;2023-05-09T07:07:35;14.53;46.29
65598;SHT31;52267;51.984;20.956;2023-05-09T07:10:02;14.69;46.61
65598;SHT31;52267;51.984;20.956;2023-05-09T07:12:30;14.81;47.12
65598;SHT31;52267;51.984;20.956;2023-05-09T07:14:57;15.03;47.99
65598;SHT31;52267;51.984;20.956;2023-05-09T07:17:25;15.26;47.49
65598;SHT31;52267;51.984;20.956;2023-05-09T07:19:52;15.37;44.90
65598;SHT31;52267;51.984;20.956;2023-05-09T07:22:19;15.58;47.12
65598;SHT31;52267;51.984;20.956;2023-05-09T07:24:46;15.77;45.27
65598;SHT31;52267;51.984;20.956;2023-05-09T07:27:13;15.89;44.86
65598;SHT31;52267;51.984;20.956;2023-05-09T07:29:40;16.09;44.79
65598;SHT31;52267;51.984;20.956;2023-05-09T07:32:08;16.30;43.84
65598;SHT31;52267;51.984;20.956;2023-05-09T07:34:35;16.46;44.04
65598;SHT31;52267;51.984;20.956;2023-05-09T07:37:02;16.64;44.48
65598;SHT31;52267;51.984;20.956;2023-05-09T07:39:29;16.75;42.36
65598;SHT31;52267;51.984;20.956;2023-05-09T07:41:56;16.88;42.28
65598;SHT31;52267;51.984;20.956;2023-05-09T07:44:23;17.00;42.01
65598;SHT31;52267;51.984;20.956;2023-05-09T07:46:50;17.08;42.58
65598;SHT31;52267;51.984;20.956;2023-05-09T07:49:17;17.21;42.38
65598;SHT31;52267;51.984;20.956;2023-05-09T07:51:44;17.37;41.41
65598;SHT31;52267;51.984;20.956;2023-05-09T07:54:11;17.39;37.54
65598;SHT31;52267;51.984;20.956;2023-05-09T07:56:39;17.37;38.70
65598;SHT31;52267;51.984;20.956;2023-05-09T07:59:06;17.67;40.56
65598;SHT31;52267;51.984;20.956;2023-05-09T08:01:33;17.71;38.35
65598;SHT31;52267;51.984;20.956;2023-05-09T08:04:00;17.42;39.74
65598;SHT31;52267;51.984;20.956;2023-05-09T08:06:27;17.46;39.43
65598;SHT31;52267;51.984;20.956;2023-05-09T08:08:54;17.64;40.47
65598;SHT31;52267;51.984;20.956;2023-05-09T08:11:21;17.90;39.27
65598;SHT31;52267;51.984;20.956;2023-05-09T08:13:49;18.13;38.52
65598;SHT31;52267;51.984;20.956;2023-05-09T08:16:16;18.35;37.48
65598;SHT31;52267;51.984;20.956;2023-05-09T08:18:43;18.47;35.90
65598;SHT31;52267;51.984;20.956;2023-05-09T08:21:10;18.38;35.65
65598;SHT31;52267;51.984;20.956;2023-05-09T08:23:38;18.58;36.15
65598;SHT31;52267;51.984;20.956;2023-05-09T08:26:06;18.48;33.16
65598;SHT31;52267;51.984;20.956;2023-05-09T08:28:33;18.42;34.03
65598;SHT31;52267;51.984;20.956;2023-05-09T08:31:00;18.22;33.28
65598;SHT31;52267;51.984;20.956;2023-05-09T08:33:27;18.17;33.31
65598;SHT31;52267;51.984;20.956;2023-05-09T08:35:54;17.70;31.16
65598;SHT31;52267;51.984;20.956;2023-05-09T08:38:22;17.86;34.05
65598;SHT31;52267;51.984;20.956;2023-05-09T08:40:50;18.16;33.80
65598;SHT31;52267;51.984;20.956;2023-05-09T08:43:17;18.12;31.09
65598;SHT31;52267;51.984;20.956;2023-05-09T08:45:50;18.40;33.92
65598;SHT31;52267;51.984;20.956;2023-05-09T08:48:20;18.54;32.06
65598;SHT31;52267;51.984;20.956;2023-05-09T08:50:48;18.52;31.96
65598;SHT31;52267;51.984;20.956;2023-05-09T08:53:16;18.76;33.38
65598;SHT31;52267;51.984;20.956;2023-05-09T08:55:43;18.89;32.97
65598;SHT31;52267;51.984;20.956;2023-05-09T08:58:12;18.94;32.42
65598;SHT31;52267;51.984;20.956;2023-05-09T09:00:40;18.94;32.06
65598;SHT31;52267;51.984;20.956;2023-05-09T09:03:07;19.03;32.51
65598;SHT31;52267;51.984;20.956;2023-05-09T09:05:35;18.94;31.05
65598;SHT31;52267;51.984;20.956;2023-05-09T09:08:05;18.85;32.02
65598;SHT31;52267;51.984;20.956;2023-05-09T09:10:33;19.09;32.52
65598;SHT31;52267;51.984;20.956;2023-05-09T09:13:02;19.28;32.15
65598;SHT31;52267;51.984;20.956;2023-05-09T09:15:33;19.41;31.02
65598;SHT31;52267;51.984;20.956;2023-05-09T09:18:06;19.61;31.82
65598;SHT31;52267;51.984;20.956;2023-05-09T09:20:44;19.67;31.80
65598;SHT31;52267;51.984;20.956;2023-05-09T09:23:16;19.82;32.52
65598;SHT31;52267;51.984;20.956;2023-05-09T09:25:46;19.96;30.83
65598;SHT31;52267;51.984;20.956;2023-05-09T09:28:13;19.77;29.94
65598;SHT31;52267;51.984;20.956;2023-05-09T09:30:44;19.87;31.78
65598;SHT31;52267;51.984;20.956;2023-05-09T09:33:20;19.86;31.00
65598;SHT31;52267;51.984;20.956;2023-05-09T09:35:49;19.83;31.11
65598;SHT31;52267;51.984;20.956;2023-05-09T09:38:18;19.89;30.99
65598;SHT31;52267;51.984;20.956;2023-05-09T09:43:28;20.41;31.00
65598;SHT31;52267;51.984;20.956;2023-05-09T09:46:01;20.29;30.08
65598;SHT31;52267;51.984;20.956;2023-05-09T09:48:30;20.21;30.20
65598;SHT31;52267;51.984;20.956;2023-05-09T09:51:08;20.28;30.39
65598;SHT31;52267;51.984;20.956;2023-05-09T09:53:40;20.46;30.41
65598;SHT31;52267;51.984;20.956;2023-05-09T09:56:08;20.73;31.03
65598;SHT31;52267;51.984;20.956;2023-05-09T09:58:36;20.78;30.79
65598;SHT31;52267;51.984;20.956;2023-05-09T10:01:03;20.81;30.78
65598;SHT31;52267;51.984;20.956;2023-05-09T10:03:42;21.00;30.94
65598;SHT31;52267;51.984;20.956;2023-05-09T10:06:12;21.44;30.92
65598;SHT31;52267;51.984;20.956;2023-05-09T10:08:41;21.67;30.09
65598;SHT31;52267;51.984;20.956;2023-05-09T10:11:14;21.43;28.81
65598;SHT31;52267;51.984;20.956;2023-05-09T10:13:41;21.12;29.89
65598;SHT31;52267;51.984;20.956;2023-05-09T10:16:10;21.32;30.21
65598;SHT31;52267;51.984;20.956;2023-05-09T10:18:38;21.30;30.25
65598;SHT31;52267;51.984;20.956;2023-05-09T10:21:07;21.44;30.25
65598;SHT31;52267;51.984;20.956;2023-05-09T10:23:41;21.44;27.89
65598;SHT31;52267;51.984;20.956;2023-05-09T10:26:16;21.26;29.30
65598;SHT31;52267;51.984;20.956;2023-05-09T10:28:51;21.03;28.98
65598;SHT31;52267;51.984;20.956;2023-05-09T10:31:22;21.03;29.65
65598;SHT31;52267;51.984;20.956;2023-05-09T10:33:54;21.04;29.55
65598;SHT31;52267;51.984;20.956;2023-05-09T10:36:22;21.01;29.37
65598;SHT31;52267;51.984;20.956;2023-05-09T10:38:50;20.95;28.32
65598;SHT31;52267;51.984;20.956;2023-05-09T10:41:20;20.52;27.62
65598;SHT31;52267;51.984;20.956;2023-05-09T10:43:49;20.41;27.90
65598;SHT31;52267;51.984;20.956;2023-05-09T10:46:16;20.57;28.86
65598;SHT31;52267;51.984;20.956;2023-05-09T10:48:44;20.75;28.73
65598;SHT31;52267;51.984;20.956;2023-05-09T10:51:13;20.94;28.99
65598;SHT31;52267;51.984;20.956;2023-05-09T10:53:45;20.89;27.83
65598;SHT31;52267;51.984;20.956;2023-05-09T10:58:54;21.09;28.45
65598;SHT31;52267;51.984;20.956;2023-05-09T11:01:31;21.13;28.48
65598;SHT31;52267;51.984;20.956;2023-05-09T11:04:08;21.31;29.36
65598;SHT31;52267;51.984;20.956;2023-05-09T11:14:32;20.37;28.01
65598;SHT31;52267;51.984;20.956;2023-05-09T11:24:45;21.18;29.54
65598;SHT31;52267;51.984;20.956;2023-05-09T11:27:22;21.27;28.67
65598;SHT31;52267;51.984;20.956;2023-05-09T11:29:52;20.61;27.09
65598;SHT31;52267;51.984;20.956;2023-05-09T11:32:26;20.24;27.86
65598;SHT31;52267;51.984;20.956;2023-05-09T11:35:06;20.06;28.46
65598;SHT31;52267;51.984;20.956;2023-05-09T11:40:29;20.28;28.54
65598;SHT31;52267;51.984;20.956;2023-05-09T11:43:00;20.44;29.55
65598;SHT31;52267;51.984;20.956;2023-05-09T11:45:28;20.58;29.39
65598;SHT31;52267;51.984;20.956;2023-05-09T11:47:57;20.69;28.66
65598;SHT31;52267;51.984;20.956;2023-05-09T11:50:26;20.54;28.61
65598;SHT31;52267;51.984;20.956;2023-05-09T11:52:53;20.47;29.30
65598;SHT31;52267;51.984;20.956;2023-05-09T11:55:20;20.44;29.20
65598;SHT31;52267;51.984;20.956;2023-05-09T11:57:48;20.55;30.07
65598;SHT31;52267;51.984;20.956;2023-05-09T12:00:20;20.75;28.90
65598;SHT31;52267;51.984;20.956;2023-05-09T12:02:49;20.72;29.21
65598;SHT31;52267;51.984;20.956;2023-05-09T12:05:19;20.61;29.18
65598;SHT31;52267;51.984;20.956;2023-05-09T12:07:48;20.33;28.34
65598;SHT31;52267;51.984;20.956;2023-05-09T12:10:17;20.15;28.94
65598;SHT31;52267;51.984;20.956;2023-05-09T12:12:46;20.24;29.42
65598;SHT31;52267;51.984;20.956;2023-05-09T12:15:15;20.57;30.29
65598;SHT31;52267;51.984;20.956;2023-05-09T12:17:43;20.46;29.04
65598;SHT31;52267;51.984;20.956;2023-05-09T12:20:11;19.92;28.49
65598;SHT31;52267;51.984;20.956;2023-05-09T12:22:41;19.63;29.53
65598;SHT31;52267;51.984;20.956;2023-05-09T12:25:09;19.50;29.99
65598;SHT31;52267;51.984;20.956;2023-05-09T12:27:38;19.31;29.96
65598;SHT31;52267;51.984;20.956;2023-05-09T12:30:06;19.34;30.20
65598;SHT31;52267;51.984;20.956;2023-05-09T12:32:36;19.55;30.44
65598;SHT31;52267;51.984;20.956;2023-05-09T12:35:05;19.61;30.13
65598;SHT31;52267;51.984;20.956;2023-05-09T12:37:34;19.74;30.61
65598;SHT31;52267;51.984;20.956;2023-05-09T12:40:09;19.95;30.46
65598;SHT31;52267;51.984;20.956;2023-05-09T12:42:38;19.83;29.85
65598;SHT31;52267;51.984;20.956;2023-05-09T12:45:10;20.06;29.89
65598;SHT31;52267;51.984;20.956;2023-05-09T12:47:37;20.16;28.99
65598;SHT31;52267;51.984;20.956;2023-05-09T12:50:08;20.22;29.57
65598;SHT31;52267;51.984;20.956;2023-05-09T12:52:38;20.39;28.84
65598;SHT31;52267;51.984;20.956;2023-05-09T12:55:11;20.33;28.53
65598;SHT31;52267;51.984;20.956;2023-05-09T12:57:39;20.33;29.25
65598;SHT31;52267;51.984;20.956;2023-05-09T13:00:08;20.42;28.80
65598;SHT31;52267;51.984;20.956;2023-05-09T13:02:40;20.38;28.53
65598;SHT31;52267;51.984;20.956;2023-05-09T13:05:08;20.41;29.54
65598;SHT31;52267;51.984;20.956;2023-05-09T13:07:43;20.60;29.23
65598;SHT31;52267;51.984;20.956;2023-05-09T13:10:14;20.67;29.75
65598;SHT31;52267;51.984;20.956;2023-05-09T13:12:44;20.78;29.63
65598;SHT31;52267;51.984;20.956;2023-05-09T13:15:13;20.61;29.20
65598;SHT31;52267;51.984;20.956;2023-05-09T13:17:46;20.68;29.50
65598;SHT31;52267;51.984;20.956;2023-05-09T13:20:15;20.67;30.37
65598;SHT31;52267;51.984;20.956;2023-05-09T13:22:43;20.83;30.19
65598;SHT31;52267;51.984;20.956;2023-05-09T13:25:11;20.71;29.57
65598;SHT31;52267;51.984;20.956;2023-05-09T13:27:38;20.80;29.61
65598;SHT31;52267;51.984;20.956;2023-05-09T13:30:06;20.28;28.42
65598;SHT31;52267;51.984;20.956;2023-05-09T13:32:34;20.19;29.08
65598;SHT31;52267;51.984;20.956;2023-05-09T13:35:04;20.20;28.97
65598;SHT31;52267;51.984;20.956;2023-05-09T13:37:33;20.19;29.23
65598;SHT31;52267;51.984;20.956;2023-05-09T13:40:01;20.35;29.81
65598;SHT31;52267;51.984;20.956;2023-05-09T13:42:29;20.61;29.37
65598;SHT31;52267;51.984;20.956;2023-05-09T13:44:57;20.93;29.30
65598;SHT31;52267;51.984;20.956;2023-05-09T13:47:24;20.96;28.39
65598;SHT31;52267;51.984;20.956;2023-05-09T13:49:51;20.67;28.10
65598;SHT31;52267;51.984;20.956;2023-05-09T13:52:18;20.53;29.00
65598;SHT31;52267;51.984;20.956;2023-05-09T13:54:45;20.54;29.36
65598;SHT31;52267;51.984;20.956;2023-05-09T13:57:13;20.58;29.22
65598;SHT31;52267;51.984;20.956;2023-05-09T13:59:41;20.73;29.43
65598;SHT31;52267;51.984;20.956;2023-05-09T14:02:08;20.41;28.92
65598;SHT31;52267;51.984;20.956;2023-05-09T14:04:36;20.39;29.88
65598;SHT31;52267;51.984;20.956;2023-05-09T14:07:04;20.44;29.29
65598;SHT31;52267;51.984;20.956;2023-05-09T14:09:31;20.55;29.82
65598;SHT31;52267;51.984;20.956;2023-05-09T14:12:05;20.63;29.39
65598;SHT31;52267;51.984;20.956;2023-05-09T14:14:32;20.61;29.25
65598;SHT31;52267;51.984;20.956;2023-05-09T14:16:59;20.61;28.93
65598;SHT31;52267;51.984;20.956;2023-05-09T14:19:27;20.64;29.33
65598;SHT31;52267;51.984;20.956;2023-05-09T14:21:55;20.76;29.46
65598;SHT31;52267;51.984;20.956;2023-05-09T14:24:22;20.86;29.19
65598;SHT31;52267;51.984;20.956;2023-05-09T14:26:50;20.89;29.26
65598;SHT31;52267;51.984;20.956;2023-05-09T14:29:17;20.87;29.22
65598;SHT31;52267;51.984;20.956;2023-05-09T14:31:44;20.65;28.41
65598;SHT31;52267;51.984;20.956;2023-05-09T14:34:11;20.68;29.08
65598;SHT31;52267;51.984;20.956;2023-05-09T14:36:39;20.43;28.45
65598;SHT31;52267;51.984;20.956;2023-05-09T14:39:06;20.45;29.37
65598;SHT31;52267;51.984;20.956;2023-05-09T14:41:33;20.31;28.30
65598;SHT31;52267;51.984;20.956;2023-05-09T14:44:00;20.04;28.51
65598;SHT31;52267;51.984;20.956;2023-05-09T14:46:28;20.03;28.55
65598;SHT31;52267;51.984;20.956;2023-05-09T14:48:55;19.90;28.80
65598;SHT31;52267;51.984;20.956;2023-05-09T14:51:27;19.78;29.14
65598;SHT31;52267;51.984;20.956;2023-05-09T14:53:54;19.71;28.48
65598;SHT31;52267;51.984;20.956;2023-05-09T14:56:21;19.64;28.53
65598;SHT31;52267;51.984;20.956;2023-05-09T14:58:48;19.59;28.77
65598;SHT31;52267;51.984;20.956;2023-05-09T15:01:15;19.59;28.76
65598;SHT31;52267;51.984;20.956;2023-05-09T15:03:42;19.66;29.50
65598;SHT31;52267;51.984;20.956;2023-05-09T15:06:09;19.68;29.02
65598;SHT31;52267;51.984;20.956;2023-05-09T15:08:36;19.75;29.60
65598;SHT31;52267;51.984;20.956;2023-05-09T15:11:04;19.82;29.63
65598;SHT31;52267;51.984;20.956;2023-05-09T15:13:33;19.88;30.37
65598;SHT31;52267;51.984;20.956;2023-05-09T15:16:00;19.96;29.77
65598;SHT31;52267;51.984;20.956;2023-05-09T15:18:27;19.92;29.63
65598;SHT31;52267;51.984;20.956;2023-05-09T15:20:54;19.56;29.10
65598;SHT31;52267;51.984;20.956;2023-05-09T15:23:21;19.26;29.55
65598;SHT31;52267;51.984;20.956;2023-05-09T15:25:48;19.19;30.29
65598;SHT31;52267;51.984;20.956;2023-05-09T15:28:15;19.30;30.32
65598;SHT31;52267;51.984;20.956;2023-05-09T15:30:42;19.11;30.02
65598;SHT31;52267;51.984;20.956;2023-05-09T15:33:10;19.00;30.52
65598;SHT31;52267;51.984;20.956;2023-05-09T15:35:38;18.89;30.34
65598;SHT31;52267;51.984;20.956;2023-05-09T15:38:05;18.66;29.80
65598;SHT31;52267;51.984;20.956;2023-05-09T15:40:40;18.50;29.67
65598;SHT31;52267;51.984;20.956;2023-05-09T15:43:07;18.51;30.35
65598;SHT31;52267;51.984;20.956;2023-05-09T15:45:34;18.47;30.74
65598;SHT31;52267;51.984;20.956;2023-05-09T15:48:03;18.58;31.30
65598;SHT31;52267;51.984;20.956;2023-05-09T15:50:30;18.68;31.06
65598;SHT31;52267;51.984;20.956;2023-05-09T15:52:58;18.77;31.12
65598;SHT31;52267;51.984;20.956;2023-05-09T15:55:25;18.66;30.97
65598;SHT31;52267;51.984;20.956;2023-05-09T15:57:52;18.62;31.67
65598;SHT31;52267;51.984;20.956;2023-05-09T16:00:19;18.49;30.95
65598;SHT31;52267;51.984;20.956;2023-05-09T16:02:46;18.15;30.29